Time;durP1;ratioP1;P1;durP2;ratioP2;P2;SDS_P1;SDS_P2;PMS_P1;PMS_P2;Temp;Humidity;BMP_temperature;BMP_pressure;BME280_temperature;BME280_humidity;BME280_pressure;Samples;Min_cycle;Max_cycle;Signal;HPM_P1;HPM_P2
2023/02/23 00:01:15;;;;;;;16.70;9.50;;;4.90;99.90;;;;;;5033056;28;20439;-67
2023/02/23 00:03:41;;;;;;;14.37;9.13;;;4.90;99.90;;;;;;5039542;28;20432;-67
2023/02/23 00:06:08;;;;;;;23.53;9.63;;;4.90;99.90;;;;;;5041950;28;20444;-68
2023/02/23 00:08:35;;;;;;;18.80;10.60;;;4.80;99.90;;;;;;5026956;28;20414;-68
2023/02/23 00:11:06;;;;;;;18.00;7.93;;;4.80;99.90;;;;;;5033217;28;20472;-66
2023/02/23 00:13:36;;;;;;;9.30;8.20;;;4.80;99.90;;;;;;5043450;28;20801;-67
2023/02/23 00:16:13;;;;;;;25.27;10.07;;;4.80;99.90;;;;;;5037818;28;20888;-69
2023/02/23 00:18:44;;;;;;;12.70;8.50;;;4.80;99.90;;;;;;5032027;28;20453;-69
2023/02/23 00:21:20;;;;;;;20.50;10.67;;;4.80;99.90;;;;;;5037504;28;20416;-70
2023/02/23 00:23:54;;;;;;;18.87;10.60;;;4.80;99.90;;;;;;5026529;28;20491;-69
2023/02/23 00:26:22;;;;;;;22.20;9.17;;;4.80;99.90;;;;;;5031677;28;20446;-70
2023/02/23 00:28:49;;;;;;;14.80;9.20;;;4.80;99.90;;;;;;5032062;28;20497;-67
2023/02/23 00:31:15;;;;;;;15.53;8.27;;;4.80;99.90;;;;;;5041016;28;20508;-68
2023/02/23 00:33:41;;;;;;;22.23;10.27;;;4.80;99.90;;;;;;5031978;28;20534;-68
2023/02/23 00:36:12;;;;;;;16.50;10.30;;;4.80;99.90;;;;;;5037799;28;20420;-67
2023/02/23 00:38:39;;;;;;;31.27;11.10;;;4.80;99.90;;;;;;5036834;28;20501;-69
2023/02/23 00:41:08;;;;;;;19.40;10.00;;;4.80;99.90;;;;;;5036331;28;20494;-67
2023/02/23 00:43:48;;;;;;;17.60;9.63;;;4.80;99.90;;;;;;5039931;28;20754;-67
2023/02/23 00:46:20;;;;;;;19.47;10.70;;;4.80;99.90;;;;;;5037830;28;20892;-68
2023/02/23 00:48:46;;;;;;;18.63;10.60;;;4.80;99.90;;;;;;5036514;28;20480;-66
2023/02/23 00:51:13;;;;;;;17.33;9.73;;;4.70;99.90;;;;;;5034467;28;20413;-69
2023/02/23 00:56:17;;;;;;;17.23;10.27;;;4.70;99.90;;;;;;5007474;28;20475;-65
2023/02/23 00:58:43;;;;;;;18.73;9.83;;;4.70;99.90;;;;;;5013088;28;20462;-65
2023/02/23 01:01:11;;;;;;;23.37;10.67;;;4.70;99.90;;;;;;5022369;28;20611;-65
2023/02/23 01:03:38;;;;;;;18.37;11.07;;;4.70;99.90;;;;;;5022581;28;20221;-65
2023/02/23 01:06:06;;;;;;;32.33;10.63;;;4.70;99.90;;;;;;5010578;28;20450;-65
2023/02/23 01:08:33;;;;;;;20.97;10.90;;;4.70;99.90;;;;;;5017756;28;20793;-65
2023/02/23 01:11:04;;;;;;;14.17;10.93;;;4.70;99.90;;;;;;5008195;28;20439;-66
2023/02/23 01:13:30;;;;;;;20.53;10.80;;;4.70;99.90;;;;;;4998265;28;20439;-66
2023/02/23 01:15:55;;;;;;;28.03;11.67;;;4.60;99.90;;;;;;5021145;28;20744;-66
2023/02/23 01:18:21;;;;;;;20.40;9.90;;;4.60;99.90;;;;;;5015415;28;20200;-64
2023/02/23 01:20:47;;;;;;;17.50;9.77;;;4.60;99.90;;;;;;5002514;28;20267;-65
2023/02/23 01:23:13;;;;;;;15.73;9.97;;;4.60;99.90;;;;;;5019300;28;20175;-64
2023/02/23 01:25:42;;;;;;;20.23;10.63;;;4.60;99.90;;;;;;5006998;28;20442;-65
2023/02/23 01:28:09;;;;;;;15.00;9.67;;;4.60;99.90;;;;;;4994764;28;20437;-65
2023/02/23 01:30:35;;;;;;;19.87;10.00;;;4.50;99.90;;;;;;4988566;28;20570;-65
2023/02/23 01:33:01;;;;;;;23.00;11.87;;;4.50;99.90;;;;;;5001667;28;20431;-64
2023/02/23 01:35:27;;;;;;;24.63;13.20;;;4.50;99.90;;;;;;5019212;28;20223;-65
2023/02/23 01:37:53;;;;;;;23.10;11.17;;;4.50;99.90;;;;;;4997322;28;20448;-65
2023/02/23 01:40:28;;;;;;;18.37;10.00;;;4.50;99.90;;;;;;4989599;28;20435;-67
2023/02/23 01:43:10;;;;;;;15.40;8.97;;;4.40;99.90;;;;;;4985095;28;20175;-65
2023/02/23 01:45:39;;;;;;;17.97;10.30;;;4.40;99.90;;;;;;5019179;28;20435;-64
2023/02/23 01:48:12;;;;;;;16.97;10.30;;;4.40;99.90;;;;;;5015726;28;20538;-63
2023/02/23 01:51:11;;;;;;;15.60;9.73;;;4.40;99.90;;;;;;5021711;28;20413;-65
2023/02/23 01:53:41;;;;;;;21.10;9.13;;;4.40;99.90;;;;;;4998451;28;20937;-65
2023/02/23 01:56:17;;;;;;;19.83;10.80;;;4.40;99.90;;;;;;5025902;28;20442;-66
2023/02/23 01:58:46;;;;;;;18.90;10.80;;;4.40;99.90;;;;;;4989528;28;20494;-64
2023/02/23 02:01:12;;;;;;;22.83;11.90;;;4.40;99.90;;;;;;5012271;28;20461;-66
2023/02/23 02:03:45;;;;;;;20.83;11.80;;;4.40;99.90;;;;;;5021448;28;20450;-66
2023/02/23 02:06:14;;;;;;;22.13;11.63;;;4.40;99.90;;;;;;5016865;28;20538;-65
2023/02/23 02:08:46;;;;;;;23.93;11.77;;;4.40;99.90;;;;;;5023392;28;20414;-66
2023/02/23 02:11:29;;;;;;;15.30;9.80;;;4.40;99.90;;;;;;5018680;28;20410;-64
2023/02/23 02:14:11;;;;;;;22.20;8.50;;;4.30;99.90;;;;;;5007173;28;20996;-65
2023/02/23 02:17:01;;;;;;;22.60;11.40;;;4.30;99.90;;;;;;5014708;28;20420;-64
2023/02/23 02:20:11;;;;;;;18.27;9.37;;;4.30;99.90;;;;;;5006341;28;20426;-64
2023/02/23 02:23:08;;;;;;;22.33;10.90;;;4.30;99.90;;;;;;5014889;28;20559;-65
2023/02/23 02:25:59;;;;;;;21.73;11.67;;;4.30;99.90;;;;;;5015163;28;20458;-65
2023/02/23 02:28:28;;;;;;;23.43;11.30;;;4.30;99.90;;;;;;4974079;28;20499;-64
2023/02/23 02:31:00;;;;;;;18.10;10.97;;;4.20;99.90;;;;;;5018971;28;20445;-64
2023/02/23 02:33:42;;;;;;;24.87;11.30;;;4.20;99.90;;;;;;5020213;28;20410;-65
2023/02/23 02:36:20;;;;;;;27.67;12.23;;;4.20;99.90;;;;;;5024796;28;20406;-64
2023/02/23 02:39:05;;;;;;;23.67;11.67;;;4.20;99.90;;;;;;5017197;28;20917;-64
2023/02/23 02:41:52;;;;;;;20.97;12.27;;;4.20;99.90;;;;;;5011566;28;20874;-65
2023/02/23 02:44:35;;;;;;;20.60;11.63;;;4.20;99.90;;;;;;4993092;28;20533;-65
2023/02/23 02:47:06;;;;;;;19.87;9.80;;;4.10;99.90;;;;;;5003581;28;20423;-64
2023/02/23 02:49:44;;;;;;;19.13;9.93;;;4.10;99.90;;;;;;5012685;28;20419;-64
2023/02/23 02:52:26;;;;;;;22.87;11.80;;;4.10;99.90;;;;;;5021910;28;20925;-65
2023/02/23 02:55:01;;;;;;;18.60;10.60;;;4.10;99.90;;;;;;5015054;28;20497;-64
2023/02/23 02:57:28;;;;;;;23.67;13.20;;;4.10;99.90;;;;;;5010609;28;21191;-65
2023/02/23 04:18:14;;;;;;;16.57;10.80;;;3.70;99.90;;;;;;5014706;28;20462;-64
2023/02/23 04:20:39;;;;;;;22.93;10.83;;;3.70;99.90;;;;;;5020073;28;20414;-65
2023/02/23 04:23:05;;;;;;;21.10;11.40;;;3.70;99.90;;;;;;5016059;28;20801;-64
2023/02/23 04:25:31;;;;;;;15.47;9.70;;;3.60;99.90;;;;;;5021679;28;20209;-65
2023/02/23 04:27:56;;;;;;;16.77;11.70;;;3.60;99.90;;;;;;5014142;28;20187;-65
2023/02/23 04:30:24;;;;;;;24.83;11.50;;;3.60;99.90;;;;;;5009800;28;20255;-65
2023/02/23 04:32:51;;;;;;;18.83;11.23;;;3.60;99.90;;;;;;5002774;28;20182;-65
2023/02/23 04:35:17;;;;;;;17.40;11.40;;;3.60;99.90;;;;;;5019809;28;20823;-65
2023/02/23 04:37:42;;;;;;;19.17;11.40;;;3.60;99.90;;;;;;5021537;28;20545;-66
2023/02/23 04:40:09;;;;;;;16.27;10.80;;;3.60;99.90;;;;;;4998506;28;20179;-64
2023/02/23 04:42:36;;;;;;;20.50;11.53;;;3.50;99.90;;;;;;5008113;28;20544;-64
2023/02/23 04:45:02;;;;;;;24.63;11.17;;;3.50;99.90;;;;;;5002279;28;20526;-65
2023/02/23 04:47:28;;;;;;;19.37;11.30;;;3.50;99.90;;;;;;5019408;28;20502;-64
2023/02/23 04:49:53;;;;;;;20.60;12.83;;;3.50;99.90;;;;;;5015812;28;20602;-66
2023/02/23 04:52:19;;;;;;;22.47;10.93;;;3.50;99.90;;;;;;5021522;28;20258;-63
2023/02/23 04:54:44;;;;;;;18.40;11.70;;;3.50;99.90;;;;;;5016300;28;20210;-64
2023/02/23 04:57:10;;;;;;;18.30;11.60;;;3.40;99.90;;;;;;5020150;28;20649;-64
2023/02/23 04:59:36;;;;;;;20.77;12.70;;;3.40;99.90;;;;;;5023385;28;20226;-63
2023/02/23 05:02:02;;;;;;;22.97;12.37;;;3.40;99.90;;;;;;5001590;28;20199;-64
2023/02/23 05:04:28;;;;;;;14.83;9.37;;;3.40;99.90;;;;;;5020318;28;20187;-65
2023/02/23 05:06:53;;;;;;;27.40;11.00;;;3.30;99.90;;;;;;5018362;28;20967;-64
2023/02/23 05:09:19;;;;;;;19.40;11.27;;;3.40;99.90;;;;;;5023580;28;20214;-65
2023/02/23 05:11:45;;;;;;;19.53;12.57;;;3.30;99.90;;;;;;5019839;28;20267;-65
2023/02/23 05:14:11;;;;;;;16.03;10.53;;;3.30;99.90;;;;;;5014397;28;20299;-64
2023/02/23 05:16:37;;;;;;;20.73;10.47;;;3.30;99.90;;;;;;5020435;28;20427;-64
2023/02/23 05:19:02;;;;;;;18.83;10.67;;;3.30;99.90;;;;;;5018737;28;20541;-64
2023/02/23 05:21:28;;;;;;;19.40;11.10;;;3.30;99.90;;;;;;4998605;28;20435;-65
2023/02/23 05:23:55;;;;;;;20.23;11.43;;;3.30;99.90;;;;;;4997483;28;20341;-65
2023/02/23 05:26:21;;;;;;;18.57;11.37;;;3.20;99.90;;;;;;4996591;28;20187;-63
2023/02/23 05:28:46;;;;;;;21.70;11.40;;;3.20;99.90;;;;;;5012629;28;20799;-66
2023/02/23 05:31:12;;;;;;;16.70;10.00;;;3.20;99.90;;;;;;5019672;28;20259;-66
2023/02/23 05:33:44;;;;;;;24.23;13.20;;;3.20;99.90;;;;;;5017591;28;20575;-65
2023/02/23 05:36:16;;;;;;;23.23;11.87;;;3.20;99.90;;;;;;5021244;28;20178;-66
2023/02/23 05:38:43;;;;;;;29.00;12.23;;;3.20;99.90;;;;;;5010339;28;20454;-66
2023/02/23 05:41:11;;;;;;;25.63;12.77;;;3.10;99.90;;;;;;5015839;28;20391;-65
2023/02/23 05:43:37;;;;;;;21.30;12.13;;;3.10;99.90;;;;;;5006768;28;20893;-65
2023/02/23 05:46:10;;;;;;;13.53;10.00;;;3.10;99.90;;;;;;5022485;28;20427;-65
2023/02/23 05:48:36;;;;;;;25.23;12.40;;;3.00;99.90;;;;;;5006111;28;20434;-65
2023/02/23 05:51:07;;;;;;;21.50;12.87;;;3.00;99.90;;;;;;5011700;28;20805;-65
2023/02/23 05:53:33;;;;;;;21.00;11.30;;;3.10;99.90;;;;;;5015329;28;20212;-65
2023/02/23 05:56:00;;;;;;;20.53;12.37;;;3.00;99.90;;;;;;5001523;28;20904;-66
2023/02/23 05:58:26;;;;;;;21.27;10.80;;;3.00;99.90;;;;;;5019109;28;20330;-66
2023/02/23 06:00:52;;;;;;;20.80;11.23;;;3.00;99.90;;;;;;5018007;28;20857;-65
2023/02/23 06:03:17;;;;;;;17.80;9.90;;;2.90;99.90;;;;;;5000383;28;20183;-66
2023/02/23 06:05:52;;;;;;;24.13;12.03;;;2.90;99.90;;;;;;5006598;28;20293;-66
2023/02/23 06:08:18;;;;;;;19.97;10.57;;;2.90;99.90;;;;;;5011569;28;20236;-64
2023/02/23 06:10:44;;;;;;;21.30;10.47;;;2.90;99.90;;;;;;5009761;28;20911;-66
2023/02/23 06:13:10;;;;;;;24.80;13.20;;;2.90;99.90;;;;;;5011165;28;20590;-65
2023/02/23 06:15:36;;;;;;;20.20;11.23;;;2.90;99.90;;;;;;5018228;28;20713;-65
2023/02/23 06:18:03;;;;;;;17.90;11.07;;;2.80;99.90;;;;;;5014756;28;20570;-65
2023/02/23 06:20:29;;;;;;;22.03;11.40;;;2.90;99.90;;;;;;4998399;28;20517;-65
2023/02/23 06:22:55;;;;;;;25.20;11.90;;;2.80;99.90;;;;;;5020228;28;20842;-65
2023/02/23 06:25:21;;;;;;;20.17;12.77;;;2.80;99.90;;;;;;5004103;28;20227;-66
2023/02/23 06:27:46;;;;;;;28.87;13.00;;;2.90;99.90;;;;;;5026149;28;20505;-65
2023/02/23 06:30:12;;;;;;;26.30;13.43;;;2.90;99.90;;;;;;5006817;28;20179;-66
2023/02/23 06:32:38;;;;;;;33.30;12.00;;;2.90;99.90;;;;;;5012643;28;20187;-65
2023/02/23 06:35:05;;;;;;;24.43;13.17;;;2.90;99.90;;;;;;5017092;28;20459;-65
2023/02/23 06:37:32;;;;;;;20.40;11.57;;;3.00;99.90;;;;;;5022576;28;20265;-64
2023/02/23 06:39:57;;;;;;;20.13;11.47;;;3.00;99.90;;;;;;5018553;28;20420;-64
2023/02/23 06:42:23;;;;;;;19.60;10.73;;;3.00;99.90;;;;;;5018063;28;20799;-64
2023/02/23 06:44:49;;;;;;;24.13;13.37;;;3.00;99.90;;;;;;5022464;28;20685;-64
2023/02/23 06:47:14;;;;;;;20.30;12.27;;;3.00;99.90;;;;;;5024296;28;20167;-64
2023/02/23 06:49:40;;;;;;;21.07;11.43;;;3.10;99.90;;;;;;5022541;28;20259;-64
2023/02/23 06:52:07;;;;;;;18.20;12.10;;;3.10;99.90;;;;;;5018605;28;20639;-64
2023/02/23 06:54:38;;;;;;;15.70;11.00;;;3.20;99.90;;;;;;5024164;28;20227;-63
2023/02/23 06:57:05;;;;;;;18.40;10.63;;;3.20;99.90;;;;;;5015891;28;20422;-62
2023/02/23 06:59:30;;;;;;;21.17;12.57;;;3.30;99.90;;;;;;5008499;28;20459;-63
2023/02/23 07:01:56;;;;;;;16.80;11.43;;;3.40;99.90;;;;;;5013310;28;20461;-64
2023/02/23 07:04:22;;;;;;;20.27;13.20;;;3.50;99.90;;;;;;5018767;28;20518;-63
2023/02/23 07:06:48;;;;;;;25.43;12.30;;;3.60;99.90;;;;;;5017975;28;20176;-65
2023/02/23 07:09:16;;;;;;;20.47;13.03;;;3.70;99.90;;;;;;5025685;28;20229;-61
2023/02/23 07:11:43;;;;;;;18.70;11.33;;;3.80;99.90;;;;;;5018760;28;20287;-61
2023/02/23 07:14:10;;;;;;;19.13;11.27;;;3.90;99.90;;;;;;5016606;28;20450;-63
2023/02/23 07:16:38;;;;;;;15.50;12.30;;;4.00;99.90;;;;;;5010296;28;20754;-63
2023/02/23 07:19:04;;;;;;;26.80;12.60;;;4.00;99.90;;;;;;4994135;28;20906;-60
2023/02/23 07:21:31;;;;;;;21.00;12.03;;;4.00;99.90;;;;;;5000264;28;20450;-64
2023/02/23 07:23:57;;;;;;;20.23;10.17;;;4.10;99.90;;;;;;5013274;28;20631;-66
2023/02/23 07:26:22;;;;;;;20.80;11.43;;;4.30;99.90;;;;;;5021716;28;20502;-63
2023/02/23 07:28:48;;;;;;;25.27;11.20;;;4.40;99.90;;;;;;5022908;28;20179;-64
2023/02/23 07:31:14;;;;;;;20.57;12.53;;;4.40;99.90;;;;;;5018866;28;20411;-62
2023/02/23 07:33:39;;;;;;;17.70;10.80;;;4.50;99.90;;;;;;5023232;28;20184;-61
2023/02/23 07:36:05;;;;;;;21.63;10.70;;;4.60;99.90;;;;;;5020814;28;20200;-63
2023/02/23 07:38:31;;;;;;;18.53;10.70;;;4.70;99.90;;;;;;5022353;28;20584;-63
2023/02/23 07:40:57;;;;;;;22.63;12.03;;;4.70;99.90;;;;;;5008957;28;20444;-63
2023/02/23 07:43:23;;;;;;;21.30;10.37;;;4.80;99.90;;;;;;4996031;28;20591;-63
2023/02/23 07:45:50;;;;;;;21.53;10.27;;;4.90;99.90;;;;;;4978799;28;20623;-64
2023/02/23 07:48:16;;;;;;;22.00;13.87;;;4.80;99.90;;;;;;5021175;28;20419;-63
2023/02/23 07:50:42;;;;;;;21.90;12.67;;;4.80;99.90;;;;;;5017047;28;20937;-62
2023/02/23 07:53:08;;;;;;;18.50;11.87;;;4.90;99.90;;;;;;5023138;28;20497;-63
2023/02/23 07:55:33;;;;;;;22.43;13.37;;;4.90;99.90;;;;;;5018451;28;20662;-62
2023/02/23 07:57:59;;;;;;;15.90;10.10;;;5.00;99.90;;;;;;5017633;28;20270;-62
2023/02/23 08:00:25;;;;;;;27.87;10.57;;;5.10;99.90;;;;;;5019764;28;20206;-62
2023/02/23 08:02:52;;;;;;;31.93;13.70;;;5.10;99.90;;;;;;4992515;28;20188;-63
2023/02/23 08:05:18;;;;;;;18.40;12.80;;;5.30;99.90;;;;;;5019213;28;20941;-64
2023/02/23 08:07:44;;;;;;;21.53;12.10;;;5.30;99.90;;;;;;5015656;28;20415;-64
2023/02/23 08:10:11;;;;;;;20.33;12.10;;;5.50;99.90;;;;;;5001221;28;20798;-64
2023/02/23 08:12:36;;;;;;;18.43;11.73;;;5.90;99.90;;;;;;5010001;28;20437;-63
2023/02/23 08:15:07;;;;;;;25.60;12.47;;;6.00;99.90;;;;;;5019241;28;20435;-64
2023/02/23 08:17:34;;;;;;;19.70;10.07;;;5.90;99.90;;;;;;5000840;28;20493;-63
2023/02/23 08:19:59;;;;;;;20.60;12.10;;;6.20;99.90;;;;;;4991203;28;21001;-63
2023/02/23 08:22:26;;;;;;;20.70;12.40;;;6.50;99.90;;;;;;5012613;28;20441;-63
2023/02/23 08:24:52;;;;;;;17.70;11.80;;;6.20;99.90;;;;;;5012430;28;20204;-62
2023/02/23 08:27:18;;;;;;;17.83;10.90;;;6.30;99.90;;;;;;5020390;28;20415;-62
2023/02/23 08:29:44;;;;;;;18.00;10.63;;;6.60;99.90;;;;;;5013527;28;20512;-64
2023/02/23 08:32:10;;;;;;;19.27;11.60;;;6.80;99.90;;;;;;5013926;28;20406;-65
2023/02/23 08:34:40;;;;;;;21.33;12.13;;;7.00;99.90;;;;;;5014563;28;20553;-63
2023/02/23 08:37:06;;;;;;;17.53;10.37;;;7.40;99.90;;;;;;5014778;28;20626;-63
2023/02/23 08:39:32;;;;;;;19.77;12.37;;;7.90;99.90;;;;;;5010886;28;20443;-63
2023/02/23 08:41:57;;;;;;;19.47;11.10;;;8.10;99.90;;;;;;5006293;28;20906;-63
2023/02/23 08:44:23;;;;;;;24.00;11.80;;;7.60;99.90;;;;;;5021034;28;20285;-64
2023/02/23 08:46:49;;;;;;;23.03;11.77;;;7.90;99.90;;;;;;5012856;28;20180;-63
2023/02/23 08:49:14;;;;;;;19.83;11.50;;;8.10;99.90;;;;;;5021603;28;20189;-62
2023/02/23 08:51:40;;;;;;;23.53;11.93;;;8.20;99.90;;;;;;5010457;28;20560;-64
2023/02/23 08:54:12;;;;;;;18.83;12.83;;;8.20;99.90;;;;;;4995913;28;20204;-64
2023/02/23 08:56:38;;;;;;;22.43;11.73;;;7.90;99.90;;;;;;5001079;28;20276;-63
2023/02/23 08:59:04;;;;;;;18.77;11.47;;;7.60;99.90;;;;;;4997361;28;20465;-63
2023/02/23 09:01:30;;;;;;;21.90;13.70;;;7.50;99.90;;;;;;5002373;28;20431;-63
2023/02/23 09:03:55;;;;;;;23.43;12.53;;;7.40;99.90;;;;;;5008670;28;20349;-63
2023/02/23 09:06:24;;;;;;;23.07;12.17;;;7.20;99.90;;;;;;5017516;28;20169;-65
2023/02/23 09:08:50;;;;;;;23.80;12.60;;;7.10;99.90;;;;;;5013832;28;20210;-64
2023/02/23 09:11:16;;;;;;;18.40;12.33;;;7.00;99.90;;;;;;5021449;28;20414;-62
2023/02/23 09:13:42;;;;;;;19.83;11.40;;;7.10;99.90;;;;;;5022410;28;20424;-63
2023/02/23 09:16:08;;;;;;;22.07;10.83;;;7.10;99.90;;;;;;4991740;28;20297;-63
2023/02/23 09:18:34;;;;;;;23.97;12.37;;;7.10;99.90;;;;;;4990084;28;20544;-63
2023/02/23 09:21:07;;;;;;;20.93;12.17;;;7.40;99.90;;;;;;4997840;28;20208;-64
2023/02/23 09:23:34;;;;;;;28.47;12.00;;;7.20;99.90;;;;;;5014150;28;20446;-64
2023/02/23 09:26:07;;;;;;;23.77;13.07;;;7.30;99.90;;;;;;5011007;28;20445;-64
2023/02/23 09:28:34;;;;;;;19.13;12.70;;;7.20;99.90;;;;;;5008168;28;20421;-60
2023/02/23 09:31:12;;;;;;;19.67;12.07;;;7.20;99.90;;;;;;5016337;28;20437;-63
2023/02/23 09:33:38;;;;;;;20.43;13.57;;;7.40;99.90;;;;;;5016281;28;20732;-63
2023/02/23 09:36:15;;;;;;;17.80;12.27;;;7.30;99.90;;;;;;5020044;28;20445;-64
2023/02/23 09:38:42;;;;;;;19.20;11.43;;;7.60;99.90;;;;;;5011366;28;20871;-64
2023/02/23 09:41:35;;;;;;;21.73;11.70;;;7.70;99.90;;;;;;5004910;28;20421;-63
2023/02/23 09:44:28;;;;;;;19.13;11.97;;;7.60;99.90;;;;;;5006531;28;20860;-63
2023/02/23 09:47:15;;;;;;;19.70;12.00;;;7.80;99.90;;;;;;5007383;28;20438;-63
2023/02/23 09:49:44;;;;;;;19.33;12.20;;;7.80;99.90;;;;;;5016755;28;20448;-64
2023/02/23 09:52:18;;;;;;;23.80;12.27;;;8.10;99.90;;;;;;5026977;28;20562;-64
2023/02/23 09:54:45;;;;;;;28.13;12.87;;;7.80;99.90;;;;;;5012777;28;20466;-65
2023/02/23 09:57:16;;;;;;;19.77;11.93;;;8.00;99.90;;;;;;5021149;28;20419;-65
2023/02/23 09:59:42;;;;;;;16.90;12.77;;;8.10;99.90;;;;;;5024425;28;21039;-64
2023/02/23 10:02:42;;;;;;;15.73;11.40;;;8.00;99.90;;;;;;5019549;28;20469;-64
2023/02/23 10:05:11;;;;;;;21.47;12.40;;;8.00;99.90;;;;;;5013232;28;20430;-65
2023/02/23 10:07:54;;;;;;;16.43;11.73;;;8.10;99.90;;;;;;5008410;28;20866;-65
2023/02/23 10:10:41;;;;;;;19.13;10.93;;;8.20;99.90;;;;;;5007091;28;20806;-65
2023/02/23 10:13:22;;;;;;;22.93;12.90;;;8.50;99.90;;;;;;5014608;28;20517;-63
2023/02/23 10:15:51;;;;;;;19.43;11.73;;;8.70;99.90;;;;;;5006150;28;20495;-65
2023/02/23 10:18:36;;;;;;;21.00;12.83;;;8.80;99.90;;;;;;5006419;28;20456;-64
2023/02/23 10:21:15;;;;;;;24.50;15.33;;;9.00;99.90;;;;;;5018036;28;20835;-63
2023/02/23 10:24:08;;;;;;;26.13;13.13;;;8.90;99.90;;;;;;5008453;28;20422;-64
2023/02/23 10:27:12;;;;;;;16.20;11.70;;;8.90;99.90;;;;;;5012736;28;20880;-64
2023/02/23 10:29:51;;;;;;;20.63;13.80;;;8.80;99.90;;;;;;4994425;28;20427;-64
2023/02/23 10:32:50;;;;;;;20.77;12.73;;;8.90;99.90;;;;;;5008880;28;20871;-64
2023/02/23 10:35:19;;;;;;;17.93;12.73;;;9.00;99.90;;;;;;5009241;28;20434;-64
2023/02/23 10:37:50;;;;;;;18.50;12.93;;;9.30;99.90;;;;;;5010412;28;20803;-64
2023/02/23 10:40:20;;;;;;;17.20;12.03;;;9.20;99.90;;;;;;5011746;28;20422;-64
2023/02/23 10:42:46;;;;;;;22.90;12.53;;;9.10;99.90;;;;;;5017137;28;20788;-64
2023/02/23 10:45:18;;;;;;;25.77;13.53;;;9.30;99.90;;;;;;5013932;28;20442;-64
2023/02/23 10:47:47;;;;;;;20.37;11.93;;;9.40;99.90;;;;;;5011865;28;20434;-65
2023/02/23 10:50:13;;;;;;;19.33;13.40;;;9.60;99.90;;;;;;5013938;28;20398;-64
2023/02/23 10:52:42;;;;;;;20.93;15.00;;;9.70;99.90;;;;;;5012623;28;20734;-63
2023/02/23 10:55:25;;;;;;;25.53;15.37;;;9.60;99.90;;;;;;5011662;28;20949;-63
2023/02/23 10:58:01;;;;;;;17.50;12.30;;;9.80;99.90;;;;;;5018077;28;20546;-64
2023/02/23 11:00:32;;;;;;;30.47;13.30;;;9.90;99.90;;;;;;5016862;28;20489;-64
2023/02/23 11:03:00;;;;;;;22.70;14.60;;;10.00;99.90;;;;;;5009934;28;20519;-64
2023/02/23 11:05:44;;;;;;;16.30;13.37;;;10.20;99.90;;;;;;5020771;28;20430;-67
2023/02/23 11:08:19;;;;;;;18.50;12.63;;;10.40;99.90;;;;;;5000922;28;20471;-64
2023/02/23 11:11:05;;;;;;;18.83;12.57;;;10.40;99.90;;;;;;5010661;28;20530;-65
2023/02/23 11:13:38;;;;;;;21.17;13.87;;;10.70;99.90;;;;;;5005231;28;20455;-63
2023/02/23 11:16:13;;;;;;;16.17;11.73;;;10.70;99.90;;;;;;5007397;28;20461;-63
2023/02/23 11:18:49;;;;;;;26.50;13.40;;;10.30;99.90;;;;;;5003402;28;20450;-63
2023/02/23 11:21:22;;;;;;;20.93;13.27;;;10.00;99.90;;;;;;5012560;28;20496;-63
2023/02/23 11:23:51;;;;;;;23.53;13.97;;;10.10;99.90;;;;;;5006725;28;20933;-67
2023/02/23 11:26:23;;;;;;;23.40;13.40;;;10.30;99.90;;;;;;5010481;28;20426;-63
2023/02/23 11:28:54;;;;;;;27.40;14.77;;;10.70;99.90;;;;;;5021248;28;20461;-63
2023/02/23 11:31:25;;;;;;;19.83;12.50;;;10.90;99.90;;;;;;5016197;28;20415;-64
2023/02/23 11:33:54;;;;;;;22.03;14.57;;;10.90;99.90;;;;;;5001689;28;20469;-64
2023/02/23 11:36:29;;;;;;;22.90;16.53;;;10.70;99.90;;;;;;5003521;28;20478;-65
2023/02/23 11:39:13;;;;;;;23.70;13.90;;;10.60;99.90;;;;;;5025565;28;20556;-63
2023/02/23 11:41:39;;;;;;;23.20;14.00;;;10.70;99.90;;;;;;5018182;28;20485;-61
2023/02/23 11:44:04;;;;;;;22.07;13.67;;;10.90;99.90;;;;;;5022444;28;20458;-63
2023/02/23 11:46:35;;;;;;;20.40;14.07;;;10.80;99.90;;;;;;5007495;28;20177;-63
2023/02/23 11:49:05;;;;;;;26.90;14.33;;;10.90;99.90;;;;;;5015160;28;20184;-63
2023/02/23 11:51:35;;;;;;;22.30;13.67;;;11.00;99.90;;;;;;5015828;28;20797;-64
2023/02/23 11:54:02;;;;;;;20.17;12.97;;;11.00;99.90;;;;;;5011510;28;20447;-63
2023/02/23 11:56:30;;;;;;;29.90;14.10;;;10.90;99.90;;;;;;5018524;28;20434;-63
2023/02/23 11:59:00;;;;;;;27.87;13.87;;;11.00;99.90;;;;;;5007360;28;20485;-63
2023/02/23 12:01:51;;;;;;;19.97;12.50;;;11.00;99.90;;;;;;5019196;28;20411;-63
2023/02/23 12:04:30;;;;;;;27.90;14.80;;;11.70;99.90;;;;;;5004891;28;20854;-63
2023/02/23 12:07:25;;;;;;;22.90;16.10;;;11.40;99.90;;;;;;5009050;28;20415;-63
2023/02/23 12:10:11;;;;;;;20.77;15.23;;;11.50;99.90;;;;;;5010503;28;20415;-64
2023/02/23 12:13:15;;;;;;;17.43;12.60;;;11.60;99.90;;;;;;4997051;28;20501;-63
2023/02/23 12:15:43;;;;;;;18.23;13.50;;;11.80;99.90;;;;;;5011396;28;20430;-65
2023/02/23 12:18:21;;;;;;;21.03;14.07;;;11.80;99.90;;;;;;5015745;28;20860;-63
2023/02/23 12:20:48;;;;;;;24.13;14.73;;;12.00;99.90;;;;;;5006010;28;20998;-64
2023/02/23 12:23:32;;;;;;;17.73;12.70;;;12.40;99.90;;;;;;5011444;28;20434;-63
2023/02/23 12:26:00;;;;;;;18.30;12.87;;;12.50;99.90;;;;;;5005403;28;20856;-63
2023/02/23 12:28:49;;;;;;;21.57;13.00;;;12.40;99.90;;;;;;5012277;28;20430;-63
2023/02/23 12:31:32;;;;;;;20.43;13.43;;;12.40;99.90;;;;;;5009655;28;20411;-63
2023/02/23 12:34:10;;;;;;;19.63;12.73;;;12.00;99.90;;;;;;5024318;28;20430;-65
2023/02/23 12:36:41;;;;;;;22.77;12.77;;;11.80;99.90;;;;;;5017900;28;20443;-62
2023/02/23 12:39:26;;;;;;;20.03;13.90;;;12.00;99.90;;;;;;5024899;28;20471;-61
2023/02/23 12:42:13;;;;;;;21.23;13.50;;;12.10;99.90;;;;;;5015665;28;20406;-62
2023/02/23 12:44:54;;;;;;;24.33;13.23;;;12.20;99.90;;;;;;5017146;28;20430;-63
2023/02/23 12:47:34;;;;;;;19.57;13.17;;;12.50;99.90;;;;;;5002872;28;20400;-62
2023/02/23 12:50:12;;;;;;;18.70;11.90;;;12.80;99.90;;;;;;5014086;28;20400;-65
2023/02/23 12:52:52;;;;;;;21.17;13.07;;;12.60;99.90;;;;;;5021078;28;20425;-62
2023/02/23 12:55:26;;;;;;;17.87;12.80;;;12.40;99.90;;;;;;5017059;28;20446;-63
2023/02/23 12:58:04;;;;;;;21.77;14.33;;;12.60;99.90;;;;;;5013440;28;20577;-62
2023/02/23 13:00:46;;;;;;;24.63;15.67;;;12.70;99.90;;;;;;5016148;28;20493;-62
2023/02/23 13:03:32;;;;;;;27.60;16.10;;;12.80;99.90;;;;;;5003205;28;20428;-63
2023/02/23 13:06:07;;;;;;;23.60;16.07;;;13.10;99.90;;;;;;5012653;28;20505;-62
2023/02/23 13:08:50;;;;;;;24.47;14.47;;;12.70;99.90;;;;;;5013274;28;20873;-62
2023/02/23 13:11:39;;;;;;;19.60;13.83;;;12.40;99.90;;;;;;5001356;28;20431;-62
2023/02/23 13:14:13;;;;;;;22.20;14.20;;;12.10;99.90;;;;;;5013733;28;20526;-65
2023/02/23 13:16:54;;;;;;;20.37;13.43;;;12.00;99.90;;;;;;5013958;28;20967;-65
2023/02/23 13:19:25;;;;;;;22.93;14.50;;;11.70;99.90;;;;;;5012136;28;20581;-70
2023/02/23 13:22:05;;;;;;;24.67;14.10;;;11.70;99.90;;;;;;5014587;28;20869;-63
2023/02/23 13:24:38;;;;;;;20.00;13.40;;;11.80;99.90;;;;;;5012730;28;20467;-62
2023/02/23 13:27:16;;;;;;;20.63;14.33;;;11.90;99.90;;;;;;5047579;22;20501;-71
2023/02/23 13:29:45;;;;;;;21.87;13.37;;;12.10;99.90;;;;;;5028130;28;20410;-72
2023/02/23 13:32:20;;;;;;;25.70;15.13;;;12.00;99.90;;;;;;5032278;28;20449;-72
2023/02/23 13:35:04;;;;;;;22.80;18.10;;;11.90;99.90;;;;;;5004897;28;20430;-71
2023/02/23 13:37:42;;;;;;;26.60;15.53;;;12.10;99.90;;;;;;5009122;28;20521;-70
2023/02/23 13:40:13;;;;;;;22.90;14.73;;;12.10;99.90;;;;;;5019677;28;20408;-69
2023/02/23 13:43:05;;;;;;;19.20;14.23;;;12.00;99.90;;;;;;5017711;28;20857;-71
2023/02/23 13:45:49;;;;;;;23.60;15.20;;;12.10;99.90;;;;;;5015148;28;20487;-72
2023/02/23 13:48:31;;;;;;;20.83;14.37;;;12.10;99.90;;;;;;5010552;28;20417;-72
2023/02/23 13:51:02;;;;;;;25.17;15.07;;;11.80;99.90;;;;;;5014871;28;27893;-71
2023/02/23 13:53:56;;;;;;;24.53;16.30;;;11.50;99.90;;;;;;5008533;28;20419;-71
2023/02/23 13:56:25;;;;;;;24.63;15.20;;;11.40;99.90;;;;;;5009785;28;20454;-70
2023/02/23 13:59:03;;;;;;;24.47;16.03;;;11.50;99.90;;;;;;5021479;28;20481;-70
2023/02/23 14:01:34;;;;;;;26.70;15.30;;;11.60;99.90;;;;;;5017365;28;20407;-72
2023/02/23 14:04:02;;;;;;;24.27;15.83;;;11.80;99.90;;;;;;5024029;28;20479;-72
2023/02/23 14:06:32;;;;;;;18.93;14.10;;;11.50;99.90;;;;;;5018728;28;20508;-73
2023/02/23 14:09:11;;;;;;;27.07;15.73;;;11.50;99.90;;;;;;5016899;28;20415;-70
2023/02/23 14:11:44;;;;;;;22.70;16.17;;;11.50;99.90;;;;;;5020271;28;20419;-71
2023/02/23 14:14:32;;;;;;;26.43;15.33;;;11.60;99.90;;;;;;5019210;28;20461;-70
2023/02/23 14:17:13;;;;;;;24.40;16.63;;;11.50;99.90;;;;;;5012042;28;20443;-72
2023/02/23 14:20:09;;;;;;;27.07;17.20;;;11.20;99.90;;;;;;5021750;28;20489;-70